»·PEaware :: CFC211 KABQ-KFLG

CFC211 :: KABQ-KFLG

FLIGHT INFORMATION

Flight Status: Arrived
Operator:
Canadian Armed Forces
More flights by this operator :: More flights under this callsign
Pilot: Anonymous 1753 (1753)
Aircraft: CANADAIR CL-600 CHALLENGER
(CL60)
More flights by this aircraft type
Origin: KABQ Albuquerque Intl Sunport
United States
Destination: KFLG Flagstaff Pulliam
United States
More flights between these airports :: More routes between these airports
Route: RDRNR3 ZUN FLG
File this flight plan on PilotEdge
Remarks: RMK / new copilot aboard
Altitude:
(Current/Filed)
40,000ft
Speed:
(Current/Filed)
456kts
Departed: 12-Nov-23 02:22 PM
Arrived: 12-Nov-23 03:06 PM
Distance/Time
Traveled:
249nm/0:44
Distance/Time
To Go:
Arrived

Flight Plot

Page will automatically refresh every two minutes.

Flight plan parsing failed; only flown route is shown


Map Options




Map Legend


Flown Route
Filed Route
Departure Airport
Arrival Airport
Navaid (VOR, NDB)
Fix

Horizontal Profiles

Position Reports

Time Latitude Longitude Heading Altitude Ground
Speed
12-Nov-23 13:06 35.039312 -106.619787 89 5310ft 0kts
12-Nov-23 13:07 35.039312 -106.619787 89 5310ft 0kts
12-Nov-23 13:08 35.039312 -106.619787 89 5310ft 0kts
12-Nov-23 13:09 35.039312 -106.619787 89 5310ft 0kts
12-Nov-23 13:10 35.039312 -106.619787 89 5310ft 0kts
12-Nov-23 13:11 35.039312 -106.619787 89 5310ft 0kts
12-Nov-23 13:12 35.039312 -106.619787 89 5310ft 0kts
12-Nov-23 13:13 35.039312 -106.619787 89 5310ft 0kts
12-Nov-23 13:14 35.039312 -106.619787 89 5310ft 0kts
12-Nov-23 13:15 35.039312 -106.619787 89 5310ft 0kts
12-Nov-23 13:16 35.039312 -106.619787 89 5310ft 0kts
12-Nov-23 13:17 35.039312 -106.619787 89 5310ft 0kts
12-Nov-23 13:18 35.039312 -106.619787 89 5310ft 0kts
12-Nov-23 13:19 35.039312 -106.619787 89 5310ft 0kts
12-Nov-23 13:20 35.039312 -106.619787 89 5310ft 0kts
12-Nov-23 13:21 35.039312 -106.619787 89 5310ft 0kts
12-Nov-23 13:22 35.039312 -106.619787 89 5310ft 0kts
12-Nov-23 13:23 35.039312 -106.619787 89 5310ft 0kts
12-Nov-23 13:24 35.039312 -106.619787 89 5310ft 0kts
12-Nov-23 13:25 35.039312 -106.619787 89 5310ft 0kts
12-Nov-23 13:26 35.039312 -106.619787 89 5310ft 0kts
12-Nov-23 13:27 35.039312 -106.619787 89 5310ft 0kts
12-Nov-23 13:28 35.039312 -106.619787 89 5310ft 0kts
12-Nov-23 13:29 35.039312 -106.619787 89 5310ft 0kts
12-Nov-23 13:30 35.039312 -106.619787 89 5310ft 0kts
12-Nov-23 13:31 35.039312 -106.619787 89 5310ft 0kts
12-Nov-23 13:32 35.039312 -106.619787 89 5310ft 0kts
12-Nov-23 13:33 35.039312 -106.619787 89 5310ft 0kts
12-Nov-23 13:34 35.039312 -106.619787 89 5310ft 0kts
12-Nov-23 13:35 35.039312 -106.619787 89 5310ft 0kts
12-Nov-23 13:36 35.039312 -106.619787 89 5310ft 0kts
12-Nov-23 13:37 35.039312 -106.619787 89 5310ft 0kts
12-Nov-23 13:38 35.039312 -106.619787 89 5310ft 0kts
12-Nov-23 13:39 35.039312 -106.619787 89 5310ft 0kts
12-Nov-23 13:40 35.039312 -106.619787 89 5310ft 0kts
12-Nov-23 13:41 35.039312 -106.619787 89 5310ft 0kts
12-Nov-23 13:42 35.039312 -106.619787 89 5310ft 0kts
12-Nov-23 13:43 35.039312 -106.619787 89 5310ft 0kts
12-Nov-23 13:44 35.039312 -106.619787 89 5310ft 0kts
12-Nov-23 13:45 35.039312 -106.619787 89 5310ft 0kts
12-Nov-23 13:46 35.039312 -106.619787 89 5310ft 0kts
12-Nov-23 13:47 35.039312 -106.619787 89 5310ft 0kts
12-Nov-23 13:48 35.039312 -106.619787 89 5310ft 0kts
12-Nov-23 13:49 35.039312 -106.619787 89 5310ft 0kts
12-Nov-23 13:50 35.039312 -106.619787 89 5310ft 0kts
12-Nov-23 13:51 35.039312 -106.619787 89 5310ft 0kts
12-Nov-23 13:52 35.039312 -106.619787 89 5310ft 0kts
12-Nov-23 13:53 35.039312 -106.619787 89 5310ft 0kts
12-Nov-23 13:54 35.039312 -106.619787 89 5310ft 0kts
12-Nov-23 13:55 35.039312 -106.619787 89 5310ft 0kts
12-Nov-23 13:56 35.039312 -106.619787 89 5310ft 0kts
12-Nov-23 13:57 35.039312 -106.619787 89 5310ft 0kts
12-Nov-23 13:58 35.039312 -106.619787 89 5310ft 0kts
12-Nov-23 13:59 35.039312 -106.619787 89 5310ft 0kts
12-Nov-23 14:00 35.039312 -106.619787 89 5310ft 0kts
12-Nov-23 14:01 35.039312 -106.619787 89 5310ft 0kts
12-Nov-23 14:02 35.039312 -106.619787 89 5310ft 0kts
12-Nov-23 14:03 35.039312 -106.619787 89 5310ft 0kts
12-Nov-23 14:07 35.039312 -106.619787 89 5310ft 0kts
12-Nov-23 14:08 35.039312 -106.619787 89 5310ft 0kts
12-Nov-23 14:09 35.039312 -106.619787 89 5310ft 0kts
12-Nov-23 14:10 35.039312 -106.619787 89 5310ft 0kts
12-Nov-23 14:11 35.039312 -106.619787 89 5310ft 0kts
12-Nov-23 14:12 35.039312 -106.619786 89 5310ft 0kts
12-Nov-23 14:13 35.039312 -106.619785 89 5310ft 0kts
12-Nov-23 14:14 35.039312 -106.619785 89 5310ft 0kts
12-Nov-23 14:15 35.039312 -106.619785 89 5310ft 0kts
12-Nov-23 14:16 35.039312 -106.619783 89 5310ft 0kts
12-Nov-23 14:17 35.039706 -106.620210 278 5309ft 10kts
12-Nov-23 14:18 35.041225 -106.621424 1 5302ft 8kts
12-Nov-23 14:19 35.043373 -106.621391 2 5301ft 11kts
12-Nov-23 14:20 35.044360 -106.620585 93 5307ft 6kts
12-Nov-23 14:21 35.045165 -106.573121 86 7999ft 183kts
12-Nov-23 14:23 35.062350 -106.522284 357 12423ft 223kts
12-Nov-23 14:24 35.094020 -106.589892 275 16449ft 270kts
12-Nov-23 14:25 35.094151 -106.690810 267 19921ft 321kts
12-Nov-23 14:26 35.096455 -106.805096 283 22371ft 352kts
12-Nov-23 14:27 35.107868 -106.923169 259 26148ft 364kts
12-Nov-23 14:28 35.082492 -107.046458 257 28696ft 395kts
12-Nov-23 14:29 35.054718 -107.183167 258 30465ft 431kts
12-Nov-23 14:30 35.033827 -107.326963 270 32729ft 435kts
12-Nov-23 14:31 35.030127 -107.476225 270 34536ft 444kts
12-Nov-23 14:32 35.025566 -107.632279 270 34811ft 477kts
12-Nov-23 14:33 35.020326 -107.794659 269 35897ft 480kts
12-Nov-23 14:34 35.014760 -107.956625 269 37037ft 479kts
12-Nov-23 14:35 35.008914 -108.118044 269 38489ft 467kts
12-Nov-23 14:36 35.003029 -108.273369 269 39616ft 461kts
12-Nov-23 14:37 34.996877 -108.431084 269 39977ft 467kts
12-Nov-23 14:38 34.990509 -108.588395 269 39984ft 464kts
12-Nov-23 14:39 34.983942 -108.745313 269 39933ft 462kts
12-Nov-23 14:40 34.977218 -108.901954 269 39914ft 470kts
12-Nov-23 14:41 34.970150 -109.061879 269 39822ft 473kts
12-Nov-23 14:42 34.971462 -109.221583 278 38907ft 470kts
12-Nov-23 14:43 34.984335 -109.379657 278 37091ft 472kts
12-Nov-23 14:44 34.997105 -109.538955 278 35239ft 474kts
12-Nov-23 14:45 35.009573 -109.697360 277 32964ft 457kts
12-Nov-23 14:46 35.021049 -109.846809 277 30648ft 433kts
12-Nov-23 14:47 35.032003 -109.990958 277 28133ft 421kts
12-Nov-23 14:48 35.042477 -110.130952 277 25648ft 409kts
12-Nov-23 14:49 35.052598 -110.267840 276 23068ft 401kts
12-Nov-23 14:49 35.060730 -110.379449 275 20898ft 392kts
12-Nov-23 14:51 35.071570 -110.530827 275 17774ft 377kts
12-Nov-23 14:52 35.080385 -110.655828 274 15117ft 363kts
12-Nov-23 14:53 35.088724 -110.775866 273 12616ft 346kts
12-Nov-23 14:53 35.095069 -110.868773 273 12224ft 326kts
12-Nov-23 14:54 35.102685 -110.981434 273 12207ft 335kts
12-Nov-23 14:55 35.109818 -111.088192 273 11064ft 305kts
12-Nov-23 14:57 35.105772 -111.206741 259 10132ft 299kts
12-Nov-23 14:58 35.093292 -111.307785 260 10126ft 298kts
12-Nov-23 14:58 35.083317 -111.389210 260 10133ft 288kts
12-Nov-23 14:59 35.071703 -111.485554 260 9889ft 274kts
12-Nov-23 15:00 35.056788 -111.574206 257 8798ft 248kts
12-Nov-23 15:01 35.049143 -111.644296 266 8800ft 168kts
12-Nov-23 15:02 35.052301 -111.700265 294 8494ft 165kts
12-Nov-23 15:03 35.090104 -111.717993 30 8089ft 153kts
12-Nov-23 15:04 35.123691 -111.686770 44 7229ft 147kts
12-Nov-23 15:05 35.137589 -111.672257 42 7011ft 0kts
12-Nov-23 15:06 35.139256 -111.671546 315 7008ft 0kts
12-Nov-23 15:07 35.138203 -111.673819 315 7008ft 5kts
12-Nov-23 15:08 35.138607 -111.673950 350 7008ft 0kts
12-Nov-23 15:09 35.138606 -111.673950 350 7008ft 0kts
12-Nov-23 15:10 35.138606 -111.673950 350 7008ft 0kts
12-Nov-23 15:11 35.138606 -111.673950 350 7008ft 0kts
12-Nov-23 15:12 35.138606 -111.673950 350 7008ft 0kts
12-Nov-23 15:13 35.138606 -111.673950 350 7008ft 0kts
12-Nov-23 15:14 35.138606 -111.673950 350 7008ft 0kts
12-Nov-23 15:15 35.138606 -111.673950 350 7008ft 0kts

Navigation Log

Ident Type
Flight plan parsing failed, navigation log unavailable